sensor_id;sensor_type;location;lat;lon;timestamp;temperature;humidity
16060;DHT22;8134;49.552;7.632;2022-11-03T08:22:25;6.80;99.90
16060;DHT22;8134;49.552;7.632;2022-11-03T08:24:51;7.00;99.90
16060;DHT22;8134;49.552;7.632;2022-11-03T08:27:17;7.20;99.90
16060;DHT22;8134;49.552;7.632;2022-11-03T08:29:43;7.40;99.90
16060;DHT22;8134;49.552;7.632;2022-11-03T08:32:09;7.60;99.90
16060;DHT22;8134;49.552;7.632;2022-11-03T08:34:34;7.60;99.90
16060;DHT22;8134;49.552;7.632;2022-11-03T08:37:00;7.80;99.90
16060;DHT22;8134;49.552;7.632;2022-11-03T08:39:25;8.00;99.90
16060;DHT22;8134;49.552;7.632;2022-11-03T08:41:51;8.10;99.90
16060;DHT22;8134;49.552;7.632;2022-11-03T08:44:16;8.10;99.90
16060;DHT22;8134;49.552;7.632;2022-11-03T08:46:42;8.20;99.90
16060;DHT22;8134;49.552;7.632;2022-11-03T08:49:07;8.30;99.90
16060;DHT22;8134;49.552;7.632;2022-11-03T08:51:33;8.40;99.90
16060;DHT22;8134;49.552;7.632;2022-11-03T08:53:58;8.50;99.90
16060;DHT22;8134;49.552;7.632;2022-11-03T08:56:23;8.60;99.90
16060;DHT22;8134;49.552;7.632;2022-11-03T08:58:49;8.70;99.90
16060;DHT22;8134;49.552;7.632;2022-11-03T09:01:15;8.70;99.90
16060;DHT22;8134;49.552;7.632;2022-11-03T09:03:40;8.80;99.90
16060;DHT22;8134;49.552;7.632;2022-11-03T09:06:06;8.80;99.90
16060;DHT22;8134;49.552;7.632;2022-11-03T09:08:32;8.90;99.90
16060;DHT22;8134;49.552;7.632;2022-11-03T09:10:57;9.00;99.90
16060;DHT22;8134;49.552;7.632;2022-11-03T09:13:23;9.10;99.90
16060;DHT22;8134;49.552;7.632;2022-11-03T09:15:48;9.00;99.90
16060;DHT22;8134;49.552;7.632;2022-11-03T09:18:14;9.00;99.90
16060;DHT22;8134;49.552;7.632;2022-11-03T09:20:40;9.20;99.90
16060;DHT22;8134;49.552;7.632;2022-11-03T09:23:05;9.30;99.90
16060;DHT22;8134;49.552;7.632;2022-11-03T09:25:31;9.20;99.90
16060;DHT22;8134;49.552;7.632;2022-11-03T09:27:57;9.20;99.90
16060;DHT22;8134;49.552;7.632;2022-11-03T09:30:22;9.30;99.90
16060;DHT22;8134;49.552;7.632;2022-11-03T09:32:47;9.50;99.90
16060;DHT22;8134;49.552;7.632;2022-11-03T09:35:13;9.50;99.90
16060;DHT22;8134;49.552;7.632;2022-11-03T09:37:39;9.70;99.90
16060;DHT22;8134;49.552;7.632;2022-11-03T09:40:05;9.80;99.90
16060;DHT22;8134;49.552;7.632;2022-11-03T09:42:31;9.80;99.90
16060;DHT22;8134;49.552;7.632;2022-11-03T09:44:58;9.90;99.90
16060;DHT22;8134;49.552;7.632;2022-11-03T09:47:29;9.80;99.90
16060;DHT22;8134;49.552;7.632;2022-11-03T09:49:56;9.70;99.90
16060;DHT22;8134;49.552;7.632;2022-11-03T09:52:22;9.80;99.90
16060;DHT22;8134;49.552;7.632;2022-11-03T09:54:48;9.90;99.90
16060;DHT22;8134;49.552;7.632;2022-11-03T09:57:15;10.00;99.90
16060;DHT22;8134;49.552;7.632;2022-11-03T09:59:42;10.10;99.90
16060;DHT22;8134;49.552;7.632;2022-11-03T10:02:13;10.20;99.90
16060;DHT22;8134;49.552;7.632;2022-11-03T10:04:40;10.40;99.90
16060;DHT22;8134;49.552;7.632;2022-11-03T10:07:06;10.50;99.90
16060;DHT22;8134;49.552;7.632;2022-11-03T10:09:32;10.50;99.90
16060;DHT22;8134;49.552;7.632;2022-11-03T10:11:58;10.60;99.90
16060;DHT22;8134;49.552;7.632;2022-11-03T10:14:23;10.70;99.90
16060;DHT22;8134;49.552;7.632;2022-11-03T10:16:50;10.70;99.90
16060;DHT22;8134;49.552;7.632;2022-11-03T10:19:16;10.80;99.90
16060;DHT22;8134;49.552;7.632;2022-11-03T10:21:43;10.90;99.90
16060;DHT22;8134;49.552;7.632;2022-11-03T10:24:12;10.90;99.90
16060;DHT22;8134;49.552;7.632;2022-11-03T10:26:51;10.90;99.90
16060;DHT22;8134;49.552;7.632;2022-11-03T10:29:17;10.90;99.90
16060;DHT22;8134;49.552;7.632;2022-11-03T10:31:44;10.90;99.90
16060;DHT22;8134;49.552;7.632;2022-11-03T10:34:54;10.90;99.90
16060;DHT22;8134;49.552;7.632;2022-11-03T10:37:08;10.90;99.90
16060;DHT22;8134;49.552;7.632;2022-11-03T10:39:33;11.00;99.90
16060;DHT22;8134;49.552;7.632;2022-11-03T10:41:59;11.00;99.90
16060;DHT22;8134;49.552;7.632;2022-11-03T10:44:25;11.10;99.90
16060;DHT22;8134;49.552;7.632;2022-11-03T10:46:58;11.10;99.90
16060;DHT22;8134;49.552;7.632;2022-11-03T10:49:24;11.10;99.90
16060;DHT22;8134;49.552;7.632;2022-11-03T10:51:52;11.30;99.90
16060;DHT22;8134;49.552;7.632;2022-11-03T10:54:19;11.20;99.90
16060;DHT22;8134;49.552;7.632;2022-11-03T10:56:45;11.30;99.90
16060;DHT22;8134;49.552;7.632;2022-11-03T10:59:15;11.30;99.90
16060;DHT22;8134;49.552;7.632;2022-11-03T11:01:41;11.40;99.90
16060;DHT22;8134;49.552;7.632;2022-11-03T11:04:07;11.50;99.90
16060;DHT22;8134;49.552;7.632;2022-11-03T11:06:32;11.50;99.90
16060;DHT22;8134;49.552;7.632;2022-11-03T11:08:59;11.60;99.90
16060;DHT22;8134;49.552;7.632;2022-11-03T11:11:25;11.50;99.90
16060;DHT22;8134;49.552;7.632;2022-11-03T11:16:51;11.50;99.90
16060;DHT22;8134;49.552;7.632;2022-11-03T11:19:17;11.40;99.90
16060;DHT22;8134;49.552;7.632;2022-11-03T11:24:09;11.50;99.90
16060;DHT22;8134;49.552;7.632;2022-11-03T11:26:34;11.50;99.90
16060;DHT22;8134;49.552;7.632;2022-11-03T11:31:36;11.60;99.90
16060;DHT22;8134;49.552;7.632;2022-11-03T11:36:33;11.70;99.90
16060;DHT22;8134;49.552;7.632;2022-11-03T11:38:58;11.80;99.90
16060;DHT22;8134;49.552;7.632;2022-11-03T11:46:52;12.10;99.90
16060;DHT22;8134;49.552;7.632;2022-11-03T11:49:20;12.20;99.90
16060;DHT22;8134;49.552;7.632;2022-11-03T11:51:46;12.30;99.90
16060;DHT22;8134;49.552;7.632;2022-11-03T11:54:16;12.40;99.90
16060;DHT22;8134;49.552;7.632;2022-11-03T11:56:46;12.50;99.90
16060;DHT22;8134;49.552;7.632;2022-11-03T11:59:17;12.50;99.90
16060;DHT22;8134;49.552;7.632;2022-11-03T12:01:44;12.50;99.90
16060;DHT22;8134;49.552;7.632;2022-11-03T12:04:14;12.60;99.90
16060;DHT22;8134;49.552;7.632;2022-11-03T12:06:41;12.70;99.90
16060;DHT22;8134;49.552;7.632;2022-11-03T12:09:13;12.70;99.90
16060;DHT22;8134;49.552;7.632;2022-11-03T12:11:42;12.70;99.90
16060;DHT22;8134;49.552;7.632;2022-11-03T12:14:21;12.80;99.90
16060;DHT22;8134;49.552;7.632;2022-11-03T12:16:46;12.70;99.90
16060;DHT22;8134;49.552;7.632;2022-11-03T12:21:56;12.80;99.90
16060;DHT22;8134;49.552;7.632;2022-11-03T12:26:57;12.90;99.90
16060;DHT22;8134;49.552;7.632;2022-11-03T12:29:23;12.80;99.90
16060;DHT22;8134;49.552;7.632;2022-11-03T12:31:48;12.90;99.90
16060;DHT22;8134;49.552;7.632;2022-11-03T12:34:14;12.90;99.90
16060;DHT22;8134;49.552;7.632;2022-11-03T12:36:41;12.80;99.90
16060;DHT22;8134;49.552;7.632;2022-11-03T12:39:06;12.80;99.90
16060;DHT22;8134;49.552;7.632;2022-11-03T12:41:32;12.80;99.90
16060;DHT22;8134;49.552;7.632;2022-11-03T12:43:57;12.80;99.90
16060;DHT22;8134;49.552;7.632;2022-11-03T12:46:23;12.80;99.90
16060;DHT22;8134;49.552;7.632;2022-11-03T12:48:48;12.70;99.90
16060;DHT22;8134;49.552;7.632;2022-11-03T12:51:15;12.70;99.90
16060;DHT22;8134;49.552;7.632;2022-11-03T12:53:41;12.70;99.90
16060;DHT22;8134;49.552;7.632;2022-11-03T12:56:07;12.80;99.90
16060;DHT22;8134;49.552;7.632;2022-11-03T12:58:33;12.80;99.90
16060;DHT22;8134;49.552;7.632;2022-11-03T13:00:58;12.90;99.90
16060;DHT22;8134;49.552;7.632;2022-11-03T13:03:24;12.80;99.90
16060;DHT22;8134;49.552;7.632;2022-11-03T13:05:50;12.80;99.90
16060;DHT22;8134;49.552;7.632;2022-11-03T13:08:15;12.90;99.90
16060;DHT22;8134;49.552;7.632;2022-11-03T13:10:41;12.90;99.90
16060;DHT22;8134;49.552;7.632;2022-11-03T13:13:06;13.00;99.90
16060;DHT22;8134;49.552;7.632;2022-11-03T13:15:32;12.90;99.90
16060;DHT22;8134;49.552;7.632;2022-11-03T13:17:57;12.90;99.90
16060;DHT22;8134;49.552;7.632;2022-11-03T13:20:23;13.00;99.90
16060;DHT22;8134;49.552;7.632;2022-11-03T13:22:48;13.10;99.90
16060;DHT22;8134;49.552;7.632;2022-11-03T13:25:14;13.10;99.90
16060;DHT22;8134;49.552;7.632;2022-11-03T13:27:39;13.10;99.90
16060;DHT22;8134;49.552;7.632;2022-11-03T13:30:05;13.00;99.90
16060;DHT22;8134;49.552;7.632;2022-11-03T13:32:31;13.10;99.90
16060;DHT22;8134;49.552;7.632;2022-11-03T13:34:57;13.10;99.90
16060;DHT22;8134;49.552;7.632;2022-11-03T13:37:22;13.20;99.90
16060;DHT22;8134;49.552;7.632;2022-11-03T13:39:48;13.20;99.90
16060;DHT22;8134;49.552;7.632;2022-11-03T13:42:13;13.30;99.90
16060;DHT22;8134;49.552;7.632;2022-11-03T13:44:39;13.30;99.90
16060;DHT22;8134;49.552;7.632;2022-11-03T13:47:04;13.40;99.90
16060;DHT22;8134;49.552;7.632;2022-11-03T13:49:30;13.40;99.90
16060;DHT22;8134;49.552;7.632;2022-11-03T13:51:55;13.40;99.90
16060;DHT22;8134;49.552;7.632;2022-11-03T13:54:21;13.60;99.90
16060;DHT22;8134;49.552;7.632;2022-11-03T13:56:46;13.60;99.90
16060;DHT22;8134;49.552;7.632;2022-11-03T13:59:12;13.80;99.90
16060;DHT22;8134;49.552;7.632;2022-11-03T14:01:37;13.80;99.90
16060;DHT22;8134;49.552;7.632;2022-11-03T14:04:03;13.90;99.90
16060;DHT22;8134;49.552;7.632;2022-11-03T14:06:28;14.00;99.90
16060;DHT22;8134;49.552;7.632;2022-11-03T14:08:54;14.10;99.90
16060;DHT22;8134;49.552;7.632;2022-11-03T14:11:19;14.00;99.90
16060;DHT22;8134;49.552;7.632;2022-11-03T14:35:42;12.90;99.90
16060;DHT22;8134;49.552;7.632;2022-11-03T14:38:08;12.80;99.90
16060;DHT22;8134;49.552;7.632;2022-11-03T14:40:33;12.90;99.90
16060;DHT22;8134;49.552;7.632;2022-11-03T14:43:17;13.00;99.90
16060;DHT22;8134;49.552;7.632;2022-11-03T14:45:43;13.10;99.90
16060;DHT22;8134;49.552;7.632;2022-11-03T14:48:08;13.20;99.90
16060;DHT22;8134;49.552;7.632;2022-11-03T14:50:33;13.20;99.90
16060;DHT22;8134;49.552;7.632;2022-11-03T14:52:59;13.20;99.90
16060;DHT22;8134;49.552;7.632;2022-11-03T14:55:24;13.20;99.90
16060;DHT22;8134;49.552;7.632;2022-11-03T14:57:50;13.10;99.90
16060;DHT22;8134;49.552;7.632;2022-11-03T15:00:15;13.00;99.90
16060;DHT22;8134;49.552;7.632;2022-11-03T15:02:41;12.80;99.90
16060;DHT22;8134;49.552;7.632;2022-11-03T15:05:06;12.80;99.90
16060;DHT22;8134;49.552;7.632;2022-11-03T15:07:52;12.70;99.90
16060;DHT22;8134;49.552;7.632;2022-11-03T15:10:17;12.70;99.90
16060;DHT22;8134;49.552;7.632;2022-11-03T15:12:43;12.70;99.90
16060;DHT22;8134;49.552;7.632;2022-11-03T15:15:08;12.70;99.90
16060;DHT22;8134;49.552;7.632;2022-11-03T15:17:34;12.70;99.90
16060;DHT22;8134;49.552;7.632;2022-11-03T15:19:59;12.70;99.90
16060;DHT22;8134;49.552;7.632;2022-11-03T15:22:25;12.60;99.90
16060;DHT22;8134;49.552;7.632;2022-11-03T15:24:50;12.60;99.90
16060;DHT22;8134;49.552;7.632;2022-11-03T15:27:16;12.60;99.90
16060;DHT22;8134;49.552;7.632;2022-11-03T15:29:41;12.60;99.90
16060;DHT22;8134;49.552;7.632;2022-11-03T15:32:07;12.70;99.90
16060;DHT22;8134;49.552;7.632;2022-11-03T15:34:32;12.50;99.90
16060;DHT22;8134;49.552;7.632;2022-11-03T15:36:58;12.50;99.90
16060;DHT22;8134;49.552;7.632;2022-11-03T15:39:23;12.40;99.90
16060;DHT22;8134;49.552;7.632;2022-11-03T15:41:49;12.40;99.90
16060;DHT22;8134;49.552;7.632;2022-11-03T15:44:14;12.30;99.90
16060;DHT22;8134;49.552;7.632;2022-11-03T15:46:40;12.30;99.90
16060;DHT22;8134;49.552;7.632;2022-11-03T15:49:05;12.30;99.90
16060;DHT22;8134;49.552;7.632;2022-11-03T15:51:31;12.20;99.90
16060;DHT22;8134;49.552;7.632;2022-11-03T15:53:56;12.20;99.90
16060;DHT22;8134;49.552;7.632;2022-11-03T15:56:22;12.20;99.90
16060;DHT22;8134;49.552;7.632;2022-11-03T15:58:47;12.10;99.90
16060;DHT22;8134;49.552;7.632;2022-11-03T16:01:13;12.20;99.90
16060;DHT22;8134;49.552;7.632;2022-11-03T16:03:38;12.20;99.90
16060;DHT22;8134;49.552;7.632;2022-11-03T16:06:04;12.20;99.90
16060;DHT22;8134;49.552;7.632;2022-11-03T16:08:30;12.30;99.90
16060;DHT22;8134;49.552;7.632;2022-11-03T16:10:55;12.30;99.90
16060;DHT22;8134;49.552;7.632;2022-11-03T16:13:21;12.20;99.90
16060;DHT22;8134;49.552;7.632;2022-11-03T16:15:46;12.20;99.90
16060;DHT22;8134;49.552;7.632;2022-11-03T16:18:12;12.10;99.90
16060;DHT22;8134;49.552;7.632;2022-11-03T16:20:38;12.10;99.90
16060;DHT22;8134;49.552;7.632;2022-11-03T16:23:03;12.00;99.90
16060;DHT22;8134;49.552;7.632;2022-11-03T16:25:29;12.10;99.90
16060;DHT22;8134;49.552;7.632;2022-11-03T16:27:54;12.00;99.90
16060;DHT22;8134;49.552;7.632;2022-11-03T16:30:20;12.00;99.90
16060;DHT22;8134;49.552;7.632;2022-11-03T16:32:46;12.10;99.90
16060;DHT22;8134;49.552;7.632;2022-11-03T16:35:11;12.10;99.90
16060;DHT22;8134;49.552;7.632;2022-11-03T16:37:37;12.00;99.90
16060;DHT22;8134;49.552;7.632;2022-11-03T16:40:03;12.00;99.90
16060;DHT22;8134;49.552;7.632;2022-11-03T16:42:28;12.00;99.90
16060;DHT22;8134;49.552;7.632;2022-11-03T16:44:54;12.00;99.90
16060;DHT22;8134;49.552;7.632;2022-11-03T16:47:19;12.00;99.90
16060;DHT22;8134;49.552;7.632;2022-11-03T16:49:45;12.00;99.90
16060;DHT22;8134;49.552;7.632;2022-11-03T16:52:10;11.90;99.90
16060;DHT22;8134;49.552;7.632;2022-11-03T16:54:36;12.00;99.90
16060;DHT22;8134;49.552;7.632;2022-11-03T16:57:02;11.90;99.90
16060;DHT22;8134;49.552;7.632;2022-11-03T16:59:28;11.80;99.90
16060;DHT22;8134;49.552;7.632;2022-11-03T17:01:53;11.70;99.90
16060;DHT22;8134;49.552;7.632;2022-11-03T17:04:19;11.80;99.90
16060;DHT22;8134;49.552;7.632;2022-11-03T17:06:45;11.70;99.90
16060;DHT22;8134;49.552;7.632;2022-11-03T17:09:10;11.80;99.90
16060;DHT22;8134;49.552;7.632;2022-11-03T17:11:37;11.80;99.90
16060;DHT22;8134;49.552;7.632;2022-11-03T17:14:04;11.80;99.90
16060;DHT22;8134;49.552;7.632;2022-11-03T17:16:30;11.70;99.90
16060;DHT22;8134;49.552;7.632;2022-11-03T17:18:56;11.60;99.90
16060;DHT22;8134;49.552;7.632;2022-11-03T17:21:23;11.60;99.90
16060;DHT22;8134;49.552;7.632;2022-11-03T17:23:49;11.60;99.90
16060;DHT22;8134;49.552;7.632;2022-11-03T17:26:14;11.80;99.90
16060;DHT22;8134;49.552;7.632;2022-11-03T17:28:41;11.60;99.90
16060;DHT22;8134;49.552;7.632;2022-11-03T17:31:06;11.70;99.90
16060;DHT22;8134;49.552;7.632;2022-11-03T17:33:33;11.80;99.90
16060;DHT22;8134;49.552;7.632;2022-11-03T17:35:59;11.90;99.90
16060;DHT22;8134;49.552;7.632;2022-11-03T17:38:25;11.80;99.90
16060;DHT22;8134;49.552;7.632;2022-11-03T17:40:52;11.90;99.90
16060;DHT22;8134;49.552;7.632;2022-11-03T17:43:22;11.80;99.90
16060;DHT22;8134;49.552;7.632;2022-11-03T17:45:48;11.90;99.90
16060;DHT22;8134;49.552;7.632;2022-11-03T17:48:13;11.90;99.90
16060;DHT22;8134;49.552;7.632;2022-11-03T17:50:41;11.90;99.90
16060;DHT22;8134;49.552;7.632;2022-11-03T17:53:11;11.90;99.90
16060;DHT22;8134;49.552;7.632;2022-11-03T17:55:40;12.00;99.90
16060;DHT22;8134;49.552;7.632;2022-11-03T17:58:06;11.80;99.90
16060;DHT22;8134;49.552;7.632;2022-11-03T18:00:32;12.00;99.90
16060;DHT22;8134;49.552;7.632;2022-11-03T18:02:58;11.80;99.90
16060;DHT22;8134;49.552;7.632;2022-11-03T18:05:25;11.80;99.90
16060;DHT22;8134;49.552;7.632;2022-11-03T18:07:51;11.80;99.90
16060;DHT22;8134;49.552;7.632;2022-11-03T18:10:17;11.80;99.90
16060;DHT22;8134;49.552;7.632;2022-11-03T18:12:43;11.70;99.90
16060;DHT22;8134;49.552;7.632;2022-11-03T18:15:28;11.60;99.90
16060;DHT22;8134;49.552;7.632;2022-11-03T18:17:54;11.60;99.90
16060;DHT22;8134;49.552;7.632;2022-11-03T18:20:20;11.60;99.90
16060;DHT22;8134;49.552;7.632;2022-11-03T18:22:46;11.60;99.90
16060;DHT22;8134;49.552;7.632;2022-11-03T18:25:15;11.60;99.90
16060;DHT22;8134;49.552;7.632;2022-11-03T18:27:41;11.60;99.90
16060;DHT22;8134;49.552;7.632;2022-11-03T18:30:07;11.60;99.90
16060;DHT22;8134;49.552;7.632;2022-11-03T18:32:33;11.60;99.90
16060;DHT22;8134;49.552;7.632;2022-11-03T18:34:59;11.60;99.90
16060;DHT22;8134;49.552;7.632;2022-11-03T18:37:24;11.70;99.90
16060;DHT22;8134;49.552;7.632;2022-11-03T18:39:50;11.80;99.90
16060;DHT22;8134;49.552;7.632;2022-11-03T18:42:15;11.70;99.90
16060;DHT22;8134;49.552;7.632;2022-11-03T18:44:41;11.90;99.90
16060;DHT22;8134;49.552;7.632;2022-11-03T18:47:07;11.80;99.90
16060;DHT22;8134;49.552;7.632;2022-11-03T18:49:33;11.80;99.90
16060;DHT22;8134;49.552;7.632;2022-11-03T18:52:00;11.90;99.90
16060;DHT22;8134;49.552;7.632;2022-11-03T18:54:26;11.90;99.90
16060;DHT22;8134;49.552;7.632;2022-11-03T18:56:54;11.90;99.90
16060;DHT22;8134;49.552;7.632;2022-11-03T18:59:24;11.90;99.90
16060;DHT22;8134;49.552;7.632;2022-11-03T19:01:51;11.90;99.90
16060;DHT22;8134;49.552;7.632;2022-11-03T19:04:16;11.90;99.90
16060;DHT22;8134;49.552;7.632;2022-11-03T19:06:42;11.90;99.90
16060;DHT22;8134;49.552;7.632;2022-11-03T19:09:08;11.90;99.90
16060;DHT22;8134;49.552;7.632;2022-11-03T19:11:36;12.00;99.90
16060;DHT22;8134;49.552;7.632;2022-11-03T19:14:01;12.00;99.90
16060;DHT22;8134;49.552;7.632;2022-11-03T19:16:27;12.00;99.90
16060;DHT22;8134;49.552;7.632;2022-11-03T19:18:53;12.00;99.90
16060;DHT22;8134;49.552;7.632;2022-11-03T19:21:22;12.00;99.90
16060;DHT22;8134;49.552;7.632;2022-11-03T19:23:48;12.10;99.90
16060;DHT22;8134;49.552;7.632;2022-11-03T19:26:24;12.00;99.90
16060;DHT22;8134;49.552;7.632;2022-11-03T19:28:53;12.00;99.90
16060;DHT22;8134;49.552;7.632;2022-11-03T19:31:28;12.00;99.90
16060;DHT22;8134;49.552;7.632;2022-11-03T19:33:55;12.00;99.90
16060;DHT22;8134;49.552;7.632;2022-11-03T19:36:21;12.00;99.90
16060;DHT22;8134;49.552;7.632;2022-11-03T19:38:46;12.00;99.90
16060;DHT22;8134;49.552;7.632;2022-11-03T19:41:13;12.10;99.90
16060;DHT22;8134;49.552;7.632;2022-11-03T19:43:57;12.10;99.90
16060;DHT22;8134;49.552;7.632;2022-11-03T19:46:23;12.10;99.90
16060;DHT22;8134;49.552;7.632;2022-11-03T19:48:48;12.10;99.90
16060;DHT22;8134;49.552;7.632;2022-11-03T19:51:14;12.10;99.90
16060;DHT22;8134;49.552;7.632;2022-11-03T19:53:40;12.10;99.90
16060;DHT22;8134;49.552;7.632;2022-11-03T19:56:05;12.10;99.90
16060;DHT22;8134;49.552;7.632;2022-11-03T19:58:31;12.10;99.90
16060;DHT22;8134;49.552;7.632;2022-11-03T20:00:56;12.10;99.90
16060;DHT22;8134;49.552;7.632;2022-11-03T20:03:22;12.10;99.90
16060;DHT22;8134;49.552;7.632;2022-11-03T20:05:50;12.10;99.90
16060;DHT22;8134;49.552;7.632;2022-11-03T20:08:16;12.20;99.90
16060;DHT22;8134;49.552;7.632;2022-11-03T20:10:43;12.10;99.90
16060;DHT22;8134;49.552;7.632;2022-11-03T20:13:12;12.10;99.90
16060;DHT22;8134;49.552;7.632;2022-11-03T20:15:39;12.10;99.90
16060;DHT22;8134;49.552;7.632;2022-11-03T20:18:04;12.10;99.90
16060;DHT22;8134;49.552;7.632;2022-11-03T20:20:33;12.10;99.90
16060;DHT22;8134;49.552;7.632;2022-11-03T20:22:59;12.10;99.90
16060;DHT22;8134;49.552;7.632;2022-11-03T20:25:29;12.10;99.90
16060;DHT22;8134;49.552;7.632;2022-11-03T20:27:55;12.10;99.90
16060;DHT22;8134;49.552;7.632;2022-11-03T20:30:22;12.10;99.90
16060;DHT22;8134;49.552;7.632;2022-11-03T20:32:48;12.20;99.90
16060;DHT22;8134;49.552;7.632;2022-11-03T20:35:18;12.10;99.90
16060;DHT22;8134;49.552;7.632;2022-11-03T20:37:46;12.10;99.90
16060;DHT22;8134;49.552;7.632;2022-11-03T20:40:16;12.10;99.90
16060;DHT22;8134;49.552;7.632;2022-11-03T20:42:44;12.00;99.90
